sensor_id;sensor_type;location;lat;lon;timestamp;P1;durP1;ratioP1;P2;durP2;ratioP2
20381;SDS011;10350;51.280;12.400;2022-09-03T00:00:59;4.10;;;0.90;;
20381;SDS011;10350;51.280;12.400;2022-09-03T00:03:28;0.98;;;0.73;;
20381;SDS011;10350;51.280;12.400;2022-09-03T00:06:14;3.25;;;0.70;;
20381;SDS011;10350;51.280;12.400;2022-09-03T00:08:56;2.05;;;0.98;;
20381;SDS011;10350;51.280;12.400;2022-09-03T00:11:25;2.55;;;1.08;;
20381;SDS011;10350;51.280;12.400;2022-09-03T00:14:09;0.65;;;0.60;;
20381;SDS011;10350;51.280;12.400;2022-09-03T00:16:43;3.42;;;0.73;;
20381;SDS011;10350;51.280;12.400;2022-09-03T00:19:10;1.05;;;0.88;;
20381;SDS011;10350;51.280;12.400;2022-09-03T00:21:50;1.25;;;1.00;;
20381;SDS011;10350;51.280;12.400;2022-09-03T00:24:18;1.70;;;1.20;;
20381;SDS011;10350;51.280;12.400;2022-09-03T00:26:46;2.67;;;0.90;;
20381;SDS011;10350;51.280;12.400;2022-09-03T00:29:16;3.03;;;1.27;;
20381;SDS011;10350;51.280;12.400;2022-09-03T00:31:48;0.90;;;0.70;;
20381;SDS011;10350;51.280;12.400;2022-09-03T00:34:19;1.55;;;1.00;;
20381;SDS011;10350;51.280;12.400;2022-09-03T00:36:47;1.13;;;0.88;;
20381;SDS011;10350;51.280;12.400;2022-09-03T00:39:15;1.08;;;0.75;;
20381;SDS011;10350;51.280;12.400;2022-09-03T00:44:25;1.10;;;0.90;;
20381;SDS011;10350;51.280;12.400;2022-09-03T00:49:52;2.20;;;1.17;;
20381;SDS011;10350;51.280;12.400;2022-09-03T00:52:24;1.85;;;1.15;;
20381;SDS011;10350;51.280;12.400;2022-09-03T00:54:59;1.90;;;1.10;;
20381;SDS011;10350;51.280;12.400;2022-09-03T00:59:58;3.25;;;0.80;;
20381;SDS011;10350;51.280;12.400;2022-09-03T01:07:30;1.45;;;0.90;;
20381;SDS011;10350;51.280;12.400;2022-09-03T01:12:54;3.42;;;0.80;;
20381;SDS011;10350;51.280;12.400;2022-09-03T01:15:29;1.75;;;0.88;;
20381;SDS011;10350;51.280;12.400;2022-09-03T01:18:01;2.95;;;0.80;;
20381;SDS011;10350;51.280;12.400;2022-09-03T01:39:10;3.80;;;1.20;;
20381;SDS011;10350;51.280;12.400;2022-09-03T01:44:31;1.10;;;0.80;;
20381;SDS011;10350;51.280;12.400;2022-09-03T01:50:09;1.95;;;0.80;;
20381;SDS011;10350;51.280;12.400;2022-09-03T01:55:52;3.22;;;0.82;;
20381;SDS011;10350;51.280;12.400;2022-09-03T01:57:57;3.92;;;0.73;;
20381;SDS011;10350;51.280;12.400;2022-09-03T02:00:27;4.43;;;1.20;;
20381;SDS011;10350;51.280;12.400;2022-09-03T02:02:55;3.33;;;1.10;;
20381;SDS011;10350;51.280;12.400;2022-09-03T02:05:26;2.38;;;0.90;;
20381;SDS011;10350;51.280;12.400;2022-09-03T02:08:00;1.35;;;0.95;;
20381;SDS011;10350;51.280;12.400;2022-09-03T02:15:34;2.83;;;1.00;;
20381;SDS011;10350;51.280;12.400;2022-09-03T02:18:02;4.30;;;1.17;;
20381;SDS011;10350;51.280;12.400;2022-09-03T02:20:28;1.77;;;1.00;;
20381;SDS011;10350;51.280;12.400;2022-09-03T02:22:55;1.45;;;1.00;;
20381;SDS011;10350;51.280;12.400;2022-09-03T02:25:22;2.15;;;0.90;;
20381;SDS011;10350;51.280;12.400;2022-09-03T02:27:49;1.27;;;1.02;;
20381;SDS011;10350;51.280;12.400;2022-09-03T02:30:15;1.10;;;0.80;;
20381;SDS011;10350;51.280;12.400;2022-09-03T02:32:42;4.45;;;1.08;;
20381;SDS011;10350;51.280;12.400;2022-09-03T02:35:08;2.92;;;0.80;;
20381;SDS011;10350;51.280;12.400;2022-09-03T02:37:35;1.15;;;0.80;;
20381;SDS011;10350;51.280;12.400;2022-09-03T02:40:01;1.42;;;0.98;;
20381;SDS011;10350;51.280;12.400;2022-09-03T02:42:32;1.52;;;0.93;;
20381;SDS011;10350;51.280;12.400;2022-09-03T02:45:02;2.05;;;1.10;;
20381;SDS011;10350;51.280;12.400;2022-09-03T02:47:32;1.42;;;0.88;;
20381;SDS011;10350;51.280;12.400;2022-09-03T02:50:00;2.05;;;0.90;;
20381;SDS011;10350;51.280;12.400;2022-09-03T02:52:26;2.80;;;1.20;;
20381;SDS011;10350;51.280;12.400;2022-09-03T02:54:52;1.33;;;0.98;;
20381;SDS011;10350;51.280;12.400;2022-09-03T02:57:18;2.17;;;1.23;;
20381;SDS011;10350;51.280;12.400;2022-09-03T02:59:44;4.35;;;1.20;;
20381;SDS011;10350;51.280;12.400;2022-09-03T03:02:10;1.80;;;1.05;;
20381;SDS011;10350;51.280;12.400;2022-09-03T03:04:37;1.35;;;1.00;;
20381;SDS011;10350;51.280;12.400;2022-09-03T03:07:03;3.03;;;1.30;;
20381;SDS011;10350;51.280;12.400;2022-09-03T03:09:29;1.40;;;0.93;;
20381;SDS011;10350;51.280;12.400;2022-09-03T03:11:55;1.20;;;0.82;;
20381;SDS011;10350;51.280;12.400;2022-09-03T03:14:21;3.30;;;0.90;;
20381;SDS011;10350;51.280;12.400;2022-09-03T03:16:48;2.03;;;1.20;;
20381;SDS011;10350;51.280;12.400;2022-09-03T03:19:14;1.45;;;0.95;;
20381;SDS011;10350;51.280;12.400;2022-09-03T03:21:40;1.83;;;1.23;;
20381;SDS011;10350;51.280;12.400;2022-09-03T03:24:06;1.50;;;1.20;;
20381;SDS011;10350;51.280;12.400;2022-09-03T03:26:32;2.28;;;1.33;;
20381;SDS011;10350;51.280;12.400;2022-09-03T03:28:59;1.95;;;0.95;;
20381;SDS011;10350;51.280;12.400;2022-09-03T03:31:28;1.33;;;1.08;;
20381;SDS011;10350;51.280;12.400;2022-09-03T03:33:55;2.47;;;1.48;;
20381;SDS011;10350;51.280;12.400;2022-09-03T03:36:22;1.60;;;1.25;;
20381;SDS011;10350;51.280;12.400;2022-09-03T03:38:48;1.00;;;0.88;;
20381;SDS011;10350;51.280;12.400;2022-09-03T03:41:18;2.83;;;1.20;;
20381;SDS011;10350;51.280;12.400;2022-09-03T03:43:55;3.72;;;0.98;;
20381;SDS011;10350;51.280;12.400;2022-09-03T03:46:22;2.53;;;1.15;;
20381;SDS011;10350;51.280;12.400;2022-09-03T03:48:49;1.40;;;0.95;;
20381;SDS011;10350;51.280;12.400;2022-09-03T03:51:15;2.63;;;1.30;;
20381;SDS011;10350;51.280;12.400;2022-09-03T03:53:41;2.58;;;1.48;;
20381;SDS011;10350;51.280;12.400;2022-09-03T03:56:09;1.55;;;1.10;;
20381;SDS011;10350;51.280;12.400;2022-09-03T03:58:35;1.48;;;0.85;;
20381;SDS011;10350;51.280;12.400;2022-09-03T04:01:04;5.37;;;1.10;;
20381;SDS011;10350;51.280;12.400;2022-09-03T04:03:30;1.33;;;1.13;;
20381;SDS011;10350;51.280;12.400;2022-09-03T04:05:56;1.75;;;1.25;;
20381;SDS011;10350;51.280;12.400;2022-09-03T04:08:23;2.17;;;1.20;;
20381;SDS011;10350;51.280;12.400;2022-09-03T04:10:49;3.28;;;1.33;;
20381;SDS011;10350;51.280;12.400;2022-09-03T04:13:16;1.20;;;0.93;;
20381;SDS011;10350;51.280;12.400;2022-09-03T04:15:42;1.20;;;1.10;;
20381;SDS011;10350;51.280;12.400;2022-09-03T04:18:08;4.07;;;1.38;;
20381;SDS011;10350;51.280;12.400;2022-09-03T04:20:37;3.13;;;1.23;;
20381;SDS011;10350;51.280;12.400;2022-09-03T04:23:03;3.25;;;1.35;;
20381;SDS011;10350;51.280;12.400;2022-09-03T04:25:29;3.20;;;1.38;;
20381;SDS011;10350;51.280;12.400;2022-09-03T04:27:56;3.45;;;1.25;;
20381;SDS011;10350;51.280;12.400;2022-09-03T04:30:22;2.22;;;1.23;;
20381;SDS011;10350;51.280;12.400;2022-09-03T04:32:51;2.30;;;1.50;;
20381;SDS011;10350;51.280;12.400;2022-09-03T04:35:17;3.42;;;1.65;;
20381;SDS011;10350;51.280;12.400;2022-09-03T04:37:43;2.05;;;1.35;;
20381;SDS011;10350;51.280;12.400;2022-09-03T04:40:09;3.67;;;1.20;;
20381;SDS011;10350;51.280;12.400;2022-09-03T04:42:35;1.65;;;1.38;;
20381;SDS011;10350;51.280;12.400;2022-09-03T04:45:01;4.35;;;1.40;;
20381;SDS011;10350;51.280;12.400;2022-09-03T04:47:27;2.85;;;1.13;;
20381;SDS011;10350;51.280;12.400;2022-09-03T04:49:53;2.17;;;1.45;;
20381;SDS011;10350;51.280;12.400;2022-09-03T04:52:19;1.42;;;1.13;;
20381;SDS011;10350;51.280;12.400;2022-09-03T04:54:45;3.15;;;1.42;;
20381;SDS011;10350;51.280;12.400;2022-09-03T04:57:11;5.15;;;1.48;;
20381;SDS011;10350;51.280;12.400;2022-09-03T04:59:37;1.73;;;1.33;;
20381;SDS011;10350;51.280;12.400;2022-09-03T05:02:04;2.40;;;1.52;;
20381;SDS011;10350;51.280;12.400;2022-09-03T05:04:30;2.20;;;1.02;;
20381;SDS011;10350;51.280;12.400;2022-09-03T05:06:56;2.90;;;1.25;;
20381;SDS011;10350;51.280;12.400;2022-09-03T05:09:22;3.85;;;1.35;;
20381;SDS011;10350;51.280;12.400;2022-09-03T05:11:48;1.80;;;1.60;;
20381;SDS011;10350;51.280;12.400;2022-09-03T05:14:14;2.08;;;1.48;;
20381;SDS011;10350;51.280;12.400;2022-09-03T05:16:40;1.50;;;1.35;;
20381;SDS011;10350;51.280;12.400;2022-09-03T05:19:06;2.83;;;1.10;;
20381;SDS011;10350;51.280;12.400;2022-09-03T05:21:34;4.32;;;1.40;;
20381;SDS011;10350;51.280;12.400;2022-09-03T05:24:00;2.10;;;1.48;;
20381;SDS011;10350;51.280;12.400;2022-09-03T05:26:28;1.45;;;1.00;;
20381;SDS011;10350;51.280;12.400;2022-09-03T05:28:54;2.63;;;1.40;;
20381;SDS011;10350;51.280;12.400;2022-09-03T05:31:22;3.72;;;1.65;;
20381;SDS011;10350;51.280;12.400;2022-09-03T05:33:50;2.85;;;1.50;;
20381;SDS011;10350;51.280;12.400;2022-09-03T05:36:21;3.60;;;1.50;;
20381;SDS011;10350;51.280;12.400;2022-09-03T05:38:47;3.05;;;1.55;;
20381;SDS011;10350;51.280;12.400;2022-09-03T05:41:14;1.77;;;1.40;;
20381;SDS011;10350;51.280;12.400;2022-09-03T05:43:40;2.42;;;1.42;;
20381;SDS011;10350;51.280;12.400;2022-09-03T05:46:07;2.63;;;1.40;;
20381;SDS011;10350;51.280;12.400;2022-09-03T05:48:34;2.30;;;1.50;;
20381;SDS011;10350;51.280;12.400;2022-09-03T05:51:01;1.92;;;1.23;;
20381;SDS011;10350;51.280;12.400;2022-09-03T05:53:28;4.15;;;1.48;;
20381;SDS011;10350;51.280;12.400;2022-09-03T05:55:55;2.78;;;1.73;;
20381;SDS011;10350;51.280;12.400;2022-09-03T05:58:21;2.92;;;1.40;;
20381;SDS011;10350;51.280;12.400;2022-09-03T06:00:47;3.25;;;1.20;;
20381;SDS011;10350;51.280;12.400;2022-09-03T06:03:13;2.35;;;1.40;;
20381;SDS011;10350;51.280;12.400;2022-09-03T06:05:52;2.70;;;1.27;;
20381;SDS011;10350;51.280;12.400;2022-09-03T06:08:18;1.60;;;1.10;;
20381;SDS011;10350;51.280;12.400;2022-09-03T06:10:45;4.30;;;1.10;;
20381;SDS011;10350;51.280;12.400;2022-09-03T06:13:11;4.28;;;1.30;;
20381;SDS011;10350;51.280;12.400;2022-09-03T06:15:37;2.63;;;1.13;;
20381;SDS011;10350;51.280;12.400;2022-09-03T06:18:03;4.18;;;1.05;;
20381;SDS011;10350;51.280;12.400;2022-09-03T06:20:30;1.92;;;1.30;;
20381;SDS011;10350;51.280;12.400;2022-09-03T06:22:56;5.35;;;1.13;;
20381;SDS011;10350;51.280;12.400;2022-09-03T06:25:22;6.45;;;1.15;;
20381;SDS011;10350;51.280;12.400;2022-09-03T06:27:48;1.90;;;1.20;;
20381;SDS011;10350;51.280;12.400;2022-09-03T06:30:15;4.82;;;1.30;;
20381;SDS011;10350;51.280;12.400;2022-09-03T06:32:44;5.15;;;1.60;;
20381;SDS011;10350;51.280;12.400;2022-09-03T06:35:10;5.00;;;1.10;;
20381;SDS011;10350;51.280;12.400;2022-09-03T06:37:40;11.90;;;1.42;;
20381;SDS011;10350;51.280;12.400;2022-09-03T06:40:06;2.47;;;1.00;;
20381;SDS011;10350;51.280;12.400;2022-09-03T06:42:36;1.73;;;0.80;;
20381;SDS011;10350;51.280;12.400;2022-09-03T06:45:02;3.10;;;1.23;;
20381;SDS011;10350;51.280;12.400;2022-09-03T06:47:28;4.30;;;1.10;;
20381;SDS011;10350;51.280;12.400;2022-09-03T06:49:54;4.20;;;1.10;;
20381;SDS011;10350;51.280;12.400;2022-09-03T06:52:21;1.95;;;1.10;;
20381;SDS011;10350;51.280;12.400;2022-09-03T06:54:47;6.10;;;1.13;;
20381;SDS011;10350;51.280;12.400;2022-09-03T06:57:13;4.80;;;1.10;;
20381;SDS011;10350;51.280;12.400;2022-09-03T06:59:39;3.05;;;1.00;;
20381;SDS011;10350;51.280;12.400;2022-09-03T07:02:05;3.15;;;1.20;;
20381;SDS011;10350;51.280;12.400;2022-09-03T07:04:31;2.35;;;1.13;;
20381;SDS011;10350;51.280;12.400;2022-09-03T07:06:58;4.88;;;1.15;;
20381;SDS011;10350;51.280;12.400;2022-09-03T07:09:25;3.58;;;1.27;;
20381;SDS011;10350;51.280;12.400;2022-09-03T07:11:51;1.95;;;1.08;;
20381;SDS011;10350;51.280;12.400;2022-09-03T07:14:20;2.88;;;1.00;;
20381;SDS011;10350;51.280;12.400;2022-09-03T07:16:47;0.98;;;0.85;;
20381;SDS011;10350;51.280;12.400;2022-09-03T07:19:13;1.83;;;1.10;;
20381;SDS011;10350;51.280;12.400;2022-09-03T07:21:39;1.85;;;1.10;;
20381;SDS011;10350;51.280;12.400;2022-09-03T07:24:05;2.40;;;0.90;;
20381;SDS011;10350;51.280;12.400;2022-09-03T07:26:33;1.75;;;0.93;;
20381;SDS011;10350;51.280;12.400;2022-09-03T07:28:59;5.75;;;0.90;;
20381;SDS011;10350;51.280;12.400;2022-09-03T07:31:26;1.08;;;0.80;;
20381;SDS011;10350;51.280;12.400;2022-09-03T07:34:03;2.45;;;0.90;;
20381;SDS011;10350;51.280;12.400;2022-09-03T07:36:30;1.73;;;0.93;;
20381;SDS011;10350;51.280;12.400;2022-09-03T07:38:57;4.22;;;1.10;;
20381;SDS011;10350;51.280;12.400;2022-09-03T07:41:24;1.67;;;0.80;;
20381;SDS011;10350;51.280;12.400;2022-09-03T07:43:51;1.42;;;0.90;;
20381;SDS011;10350;51.280;12.400;2022-09-03T07:46:18;4.65;;;0.85;;
20381;SDS011;10350;51.280;12.400;2022-09-03T07:48:57;2.05;;;0.90;;
20381;SDS011;10350;51.280;12.400;2022-09-03T07:51:24;2.65;;;1.00;;
20381;SDS011;10350;51.280;12.400;2022-09-03T07:53:51;4.22;;;0.82;;
20381;SDS011;10350;51.280;12.400;2022-09-03T07:56:18;3.08;;;0.82;;
20381;SDS011;10350;51.280;12.400;2022-09-03T07:58:44;1.35;;;0.70;;
20381;SDS011;10350;51.280;12.400;2022-09-03T08:03:40;3.83;;;0.93;;
20381;SDS011;10350;51.280;12.400;2022-09-03T08:06:07;4.30;;;1.10;;
20381;SDS011;10350;51.280;12.400;2022-09-03T08:08:34;1.38;;;0.90;;
20381;SDS011;10350;51.280;12.400;2022-09-03T08:11:07;1.48;;;0.70;;
20381;SDS011;10350;51.280;12.400;2022-09-03T08:13:39;2.53;;;0.95;;
20381;SDS011;10350;51.280;12.400;2022-09-03T08:16:07;1.92;;;0.60;;
20381;SDS011;10350;51.280;12.400;2022-09-03T08:18:34;4.55;;;1.02;;
20381;SDS011;10350;51.280;12.400;2022-09-03T08:21:06;2.00;;;0.63;;
20381;SDS011;10350;51.280;12.400;2022-09-03T08:23:36;2.72;;;0.82;;
20381;SDS011;10350;51.280;12.400;2022-09-03T08:26:02;1.67;;;0.90;;
20381;SDS011;10350;51.280;12.400;2022-09-03T08:28:29;3.00;;;0.90;;
20381;SDS011;10350;51.280;12.400;2022-09-03T08:30:57;3.88;;;0.90;;
20381;SDS011;10350;51.280;12.400;2022-09-03T08:33:23;2.22;;;0.80;;
20381;SDS011;10350;51.280;12.400;2022-09-03T08:36:04;3.78;;;1.02;;
20381;SDS011;10350;51.280;12.400;2022-09-03T08:38:32;2.75;;;0.80;;
20381;SDS011;10350;51.280;12.400;2022-09-03T08:41:14;1.55;;;0.90;;
20381;SDS011;10350;51.280;12.400;2022-09-03T08:43:50;2.85;;;1.00;;
20381;SDS011;10350;51.280;12.400;2022-09-03T08:46:19;1.90;;;0.75;;
20381;SDS011;10350;51.280;12.400;2022-09-03T08:48:49;1.25;;;0.85;;
20381;SDS011;10350;51.280;12.400;2022-09-03T08:51:18;1.65;;;0.93;;
20381;SDS011;10350;51.280;12.400;2022-09-03T08:53:47;3.53;;;1.10;;
20381;SDS011;10350;51.280;12.400;2022-09-03T08:56:23;4.57;;;0.98;;
20381;SDS011;10350;51.280;12.400;2022-09-03T08:58:50;1.80;;;1.02;;
20381;SDS011;10350;51.280;12.400;2022-09-03T09:17:22;1.95;;;0.95;;
20381;SDS011;10350;51.280;12.400;2022-09-03T09:22:08;4.90;;;1.08;;
20381;SDS011;10350;51.280;12.400;2022-09-03T09:24:37;2.35;;;0.82;;
20381;SDS011;10350;51.280;12.400;2022-09-03T09:27:05;4.70;;;0.90;;
20381;SDS011;10350;51.280;12.400;2022-09-03T09:29:31;2.83;;;0.80;;
20381;SDS011;10350;51.280;12.400;2022-09-03T09:31:58;1.58;;;1.10;;
20381;SDS011;10350;51.280;12.400;2022-09-03T09:34:24;3.17;;;1.00;;
20381;SDS011;10350;51.280;12.400;2022-09-03T09:36:52;1.60;;;0.88;;
20381;SDS011;10350;51.280;12.400;2022-09-03T09:39:18;3.53;;;1.00;;
20381;SDS011;10350;51.280;12.400;2022-09-03T09:41:58;3.17;;;1.02;;
20381;SDS011;10350;51.280;12.400;2022-09-03T09:44:24;4.57;;;0.90;;
20381;SDS011;10350;51.280;12.400;2022-09-03T09:47:00;2.15;;;1.13;;
20381;SDS011;10350;51.280;12.400;2022-09-03T09:49:32;4.55;;;0.85;;
20381;SDS011;10350;51.280;12.400;2022-09-03T09:52:00;2.72;;;0.88;;
20381;SDS011;10350;51.280;12.400;2022-09-03T09:54:27;2.65;;;0.80;;
20381;SDS011;10350;51.280;12.400;2022-09-03T09:57:01;1.65;;;1.10;;
20381;SDS011;10350;51.280;12.400;2022-09-03T09:59:27;1.30;;;0.88;;
20381;SDS011;10350;51.280;12.400;2022-09-03T10:02:01;1.98;;;0.80;;
20381;SDS011;10350;51.280;12.400;2022-09-03T10:04:29;2.22;;;0.90;;
20381;SDS011;10350;51.280;12.400;2022-09-03T10:09:43;1.60;;;0.88;;
20381;SDS011;10350;51.280;12.400;2022-09-03T10:12:13;1.67;;;0.88;;
20381;SDS011;10350;51.280;12.400;2022-09-03T10:15:00;1.27;;;1.00;;
20381;SDS011;10350;51.280;12.400;2022-09-03T10:20:27;1.67;;;0.85;;
20381;SDS011;10350;51.280;12.400;2022-09-03T10:23:06;2.08;;;0.70;;
20381;SDS011;10350;51.280;12.400;2022-09-03T10:25:37;2.88;;;1.00;;
20381;SDS011;10350;51.280;12.400;2022-09-03T10:28:03;5.20;;;0.80;;
20381;SDS011;10350;51.280;12.400;2022-09-03T10:30:38;2.45;;;0.82;;
20381;SDS011;10350;51.280;12.400;2022-09-03T10:33:21;1.50;;;0.90;;
20381;SDS011;10350;51.280;12.400;2022-09-03T10:35:59;3.58;;;0.77;;
20381;SDS011;10350;51.280;12.400;2022-09-03T10:38:34;2.90;;;0.90;;
20381;SDS011;10350;51.280;12.400;2022-09-03T10:46:16;2.17;;;0.85;;
20381;SDS011;10350;51.280;12.400;2022-09-03T10:59:24;2.45;;;0.70;;
20381;SDS011;10350;51.280;12.400;2022-09-03T11:06:53;1.52;;;0.70;;
20381;SDS011;10350;51.280;12.400;2022-09-03T11:09:21;1.75;;;0.73;;
20381;SDS011;10350;51.280;12.400;2022-09-03T11:11:59;2.47;;;1.13;;
20381;SDS011;10350;51.280;12.400;2022-09-03T11:14:33;2.55;;;0.85;;
20381;SDS011;10350;51.280;12.400;2022-09-03T11:17:14;0.90;;;0.70;;
20381;SDS011;10350;51.280;12.400;2022-09-03T11:19:47;1.17;;;0.95;;
20381;SDS011;10350;51.280;12.400;2022-09-03T11:22:14;1.55;;;0.90;;
20381;SDS011;10350;51.280;12.400;2022-09-03T11:24:45;1.02;;;0.73;;
20381;SDS011;10350;51.280;12.400;2022-09-03T11:35:36;2.22;;;0.63;;
20381;SDS011;10350;51.280;12.400;2022-09-03T11:40:35;1.67;;;0.77;;
20381;SDS011;10350;51.280;12.400;2022-09-03T11:43:06;3.15;;;0.80;;
20381;SDS011;10350;51.280;12.400;2022-09-03T11:45:33;3.20;;;0.75;;
20381;SDS011;10350;51.280;12.400;2022-09-03T11:48:00;2.38;;;0.70;;
20381;SDS011;10350;51.280;12.400;2022-09-03T11:50:27;2.17;;;0.70;;
20381;SDS011;10350;51.280;12.400;2022-09-03T11:53:05;3.67;;;1.00;;
20381;SDS011;10350;51.280;12.400;2022-09-03T11:55:32;2.47;;;0.85;;
20381;SDS011;10350;51.280;12.400;2022-09-03T11:58:22;2.03;;;0.80;;
20381;SDS011;10350;51.280;12.400;2022-09-03T12:00:50;2.08;;;1.00;;
20381;SDS011;10350;51.280;12.400;2022-09-03T12:03:20;1.48;;;0.80;;
20381;SDS011;10350;51.280;12.400;2022-09-03T12:05:49;1.95;;;1.05;;
20381;SDS011;10350;51.280;12.400;2022-09-03T12:08:38;7.25;;;1.20;;
20381;SDS011;10350;51.280;12.400;2022-09-03T12:11:54;1.75;;;1.02;;
20381;SDS011;10350;51.280;12.400;2022-09-03T12:19:12;3.60;;;0.80;;
20381;SDS011;10350;51.280;12.400;2022-09-03T12:21:40;8.35;;;1.25;;
20381;SDS011;10350;51.280;12.400;2022-09-03T12:24:09;2.35;;;1.00;;
20381;SDS011;10350;51.280;12.400;2022-09-03T12:26:41;1.45;;;0.80;;
20381;SDS011;10350;51.280;12.400;2022-09-03T12:29:29;2.72;;;0.88;;
20381;SDS011;10350;51.280;12.400;2022-09-03T12:31:54;3.88;;;0.60;;
20381;SDS011;10350;51.280;12.400;2022-09-03T12:34:20;1.98;;;0.98;;
20381;SDS011;10350;51.280;12.400;2022-09-03T12:36:51;3.83;;;1.00;;
20381;SDS011;10350;51.280;12.400;2022-09-03T12:39:18;3.15;;;0.90;;
20381;SDS011;10350;51.280;12.400;2022-09-03T12:44:25;1.17;;;0.80;;
20381;SDS011;10350;51.280;12.400;2022-09-03T12:49:50;6.80;;;1.00;;
20381;SDS011;10350;51.280;12.400;2022-09-03T12:57:16;2.17;;;0.90;;
20381;SDS011;10350;51.280;12.400;2022-09-03T12:59:45;2.30;;;0.98;;
20381;SDS011;10350;51.280;12.400;2022-09-03T13:02:16;1.95;;;0.90;;
20381;SDS011;10350;51.280;12.400;2022-09-03T13:04:44;1.58;;;0.90;;
20381;SDS011;10350;51.280;12.400;2022-09-03T13:07:19;2.42;;;1.00;;
20381;SDS011;10350;51.280;12.400;2022-09-03T13:09:46;1.35;;;0.80;;
20381;SDS011;10350;51.280;12.400;2022-09-03T13:13:15;2.25;;;1.00;;
20381;SDS011;10350;51.280;12.400;2022-09-03T13:15:09;2.13;;;1.00;;
20381;SDS011;10350;51.280;12.400;2022-09-03T13:23:27;2.00;;;0.70;;
20381;SDS011;10350;51.280;12.400;2022-09-03T13:31:08;0.65;;;0.65;;
20381;SDS011;10350;51.280;12.400;2022-09-03T13:33:45;1.17;;;0.70;;
20381;SDS011;10350;51.280;12.400;2022-09-03T13:46:30;1.67;;;0.80;;
20381;SDS011;10350;51.280;12.400;2022-09-03T13:49:08;5.68;;;0.77;;
20381;SDS011;10350;51.280;12.400;2022-09-03T13:52:00;2.35;;;0.95;;
20381;SDS011;10350;51.280;12.400;2022-09-03T13:54:35;2.63;;;1.10;;
20381;SDS011;10350;51.280;12.400;2022-09-03T13:57:04;6.00;;;0.50;;
20381;SDS011;10350;51.280;12.400;2022-09-03T13:59:43;2.97;;;1.10;;
20381;SDS011;10350;51.280;12.400;2022-09-03T14:15:54;1.40;;;0.80;;
20381;SDS011;10350;51.280;12.400;2022-09-03T14:18:45;1.63;;;1.00;;
20381;SDS011;10350;51.280;12.400;2022-09-03T14:24:18;2.53;;;1.00;;
20381;SDS011;10350;51.280;12.400;2022-09-03T14:26:49;3.22;;;0.80;;
20381;SDS011;10350;51.280;12.400;2022-09-03T14:29:34;1.48;;;0.95;;
20381;SDS011;10350;51.280;12.400;2022-09-03T14:55:55;1.17;;;0.80;;
20381;SDS011;10350;51.280;12.400;2022-09-03T15:00:58;5.00;;;1.15;;
20381;SDS011;10350;51.280;12.400;2022-09-03T15:11:04;3.63;;;1.20;;
20381;SDS011;10350;51.280;12.400;2022-09-03T15:13:41;1.90;;;0.98;;
20381;SDS011;10350;51.280;12.400;2022-09-03T15:36:39;1.80;;;0.88;;
20381;SDS011;10350;51.280;12.400;2022-09-03T15:39:10;1.42;;;0.70;;
20381;SDS011;10350;51.280;12.400;2022-09-03T15:44:24;3.15;;;1.02;;
20381;SDS011;10350;51.280;12.400;2022-09-03T15:47:11;4.20;;;1.00;;
20381;SDS011;10350;51.280;12.400;2022-09-03T15:52:51;3.28;;;0.90;;
20381;SDS011;10350;51.280;12.400;2022-09-03T15:57:53;4.05;;;0.70;;
20381;SDS011;10350;51.280;12.400;2022-09-03T16:00:28;4.18;;;0.93;;
20381;SDS011;10350;51.280;12.400;2022-09-03T16:03:09;2.50;;;0.80;;
20381;SDS011;10350;51.280;12.400;2022-09-03T16:05:40;4.45;;;1.08;;
20381;SDS011;10350;51.280;12.400;2022-09-03T16:10:47;2.92;;;0.80;;
20381;SDS011;10350;51.280;12.400;2022-09-03T16:16:03;2.03;;;0.70;;
20381;SDS011;10350;51.280;12.400;2022-09-03T16:18:37;1.08;;;0.70;;
20381;SDS011;10350;51.280;12.400;2022-09-03T16:21:47;4.50;;;0.85;;
20381;SDS011;10350;51.280;12.400;2022-09-03T16:23:58;3.95;;;0.90;;
20381;SDS011;10350;51.280;12.400;2022-09-03T16:29:11;2.78;;;1.00;;
20381;SDS011;10350;51.280;12.400;2022-09-03T16:55:13;2.00;;;0.93;;
20381;SDS011;10350;51.280;12.400;2022-09-03T17:00:21;1.55;;;1.13;;
20381;SDS011;10350;51.280;12.400;2022-09-03T17:23:38;4.40;;;1.00;;
20381;SDS011;10350;51.280;12.400;2022-09-03T17:31:22;1.30;;;0.93;;
20381;SDS011;10350;51.280;12.400;2022-09-03T17:36:27;3.10;;;1.15;;
20381;SDS011;10350;51.280;12.400;2022-09-03T17:39:02;7.32;;;1.17;;
20381;SDS011;10350;51.280;12.400;2022-09-03T17:52:27;2.13;;;1.23;;
20381;SDS011;10350;51.280;12.400;2022-09-03T17:55:00;4.20;;;1.25;;
20381;SDS011;10350;51.280;12.400;2022-09-03T17:57:42;4.45;;;1.00;;
20381;SDS011;10350;51.280;12.400;2022-09-03T18:00:10;2.05;;;1.23;;
20381;SDS011;10350;51.280;12.400;2022-09-03T18:05:17;2.83;;;1.27;;
20381;SDS011;10350;51.280;12.400;2022-09-03T18:19:59;2.00;;;1.40;;
20381;SDS011;10350;51.280;12.400;2022-09-03T18:25:55;6.20;;;1.70;;
20381;SDS011;10350;51.280;12.400;2022-09-03T18:28:42;4.68;;;1.80;;
20381;SDS011;10350;51.280;12.400;2022-09-03T18:31:29;2.17;;;1.77;;
20381;SDS011;10350;51.280;12.400;2022-09-03T18:34:14;7.53;;;1.88;;
20381;SDS011;10350;51.280;12.400;2022-09-03T18:36:59;6.53;;;3.10;;
20381;SDS011;10350;51.280;12.400;2022-09-03T18:39:44;8.05;;;4.90;;
20381;SDS011;10350;51.280;12.400;2022-09-03T18:42:33;6.35;;;3.80;;
20381;SDS011;10350;51.280;12.400;2022-09-03T18:56:46;8.35;;;3.58;;
20381;SDS011;10350;51.280;12.400;2022-09-03T19:05:18;5.28;;;2.75;;
20381;SDS011;10350;51.280;12.400;2022-09-03T19:11:08;3.33;;;1.90;;
20381;SDS011;10350;51.280;12.400;2022-09-03T19:13:53;4.15;;;2.05;;
20381;SDS011;10350;51.280;12.400;2022-09-03T19:20:07;2.80;;;1.70;;
20381;SDS011;10350;51.280;12.400;2022-09-03T19:22:57;4.50;;;1.80;;
20381;SDS011;10350;51.280;12.400;2022-09-03T19:25:42;3.70;;;1.70;;
20381;SDS011;10350;51.280;12.400;2022-09-03T19:28:28;3.45;;;1.90;;
20381;SDS011;10350;51.280;12.400;2022-09-03T19:31:18;2.75;;;1.77;;
20381;SDS011;10350;51.280;12.400;2022-09-03T19:37:02;3.72;;;1.98;;
20381;SDS011;10350;51.280;12.400;2022-09-03T19:51:11;5.32;;;1.83;;
20381;SDS011;10350;51.280;12.400;2022-09-03T19:53:59;3.45;;;1.70;;
20381;SDS011;10350;51.280;12.400;2022-09-03T19:56:47;4.50;;;1.70;;
20381;SDS011;10350;51.280;12.400;2022-09-03T19:59:33;3.25;;;1.60;;
20381;SDS011;10350;51.280;12.400;2022-09-03T20:02:19;2.80;;;1.77;;
20381;SDS011;10350;51.280;12.400;2022-09-03T20:05:05;6.10;;;1.85;;
20381;SDS011;10350;51.280;12.400;2022-09-03T20:07:51;2.75;;;1.92;;
20381;SDS011;10350;51.280;12.400;2022-09-03T20:10:38;5.82;;;1.80;;
20381;SDS011;10350;51.280;12.400;2022-09-03T20:13:13;5.07;;;2.22;;
20381;SDS011;10350;51.280;12.400;2022-09-03T20:24:13;4.03;;;1.83;;
20381;SDS011;10350;51.280;12.400;2022-09-03T20:34:49;4.43;;;2.00;;
20381;SDS011;10350;51.280;12.400;2022-09-03T20:37:42;2.22;;;1.58;;
20381;SDS011;10350;51.280;12.400;2022-09-03T20:40:15;6.50;;;1.83;;
20381;SDS011;10350;51.280;12.400;2022-09-03T20:45:36;5.93;;;1.98;;
20381;SDS011;10350;51.280;12.400;2022-09-03T20:55:42;3.78;;;2.47;;
20381;SDS011;10350;51.280;12.400;2022-09-03T21:00:43;5.15;;;2.28;;
20381;SDS011;10350;51.280;12.400;2022-09-03T21:03:17;3.57;;;2.30;;
20381;SDS011;10350;51.280;12.400;2022-09-03T21:10:56;5.07;;;2.33;;
20381;SDS011;10350;51.280;12.400;2022-09-03T21:21:17;5.38;;;2.33;;
20381;SDS011;10350;51.280;12.400;2022-09-03T21:23:46;5.78;;;2.67;;
20381;SDS011;10350;51.280;12.400;2022-09-03T21:28:43;5.40;;;2.45;;
20381;SDS011;10350;51.280;12.400;2022-09-03T21:33:57;4.43;;;2.35;;
20381;SDS011;10350;51.280;12.400;2022-09-03T21:42:06;4.57;;;2.15;;